Key West, FL

17:25 EST le 12 février 2016 (GMT -0500)
Big Coppitt Key Gulfside | | Change Station
CLOSE
Current Station
Stations météorologiques personnelles
Location: Key West, FL
Altitude: 31 ft
Stations météo à proximité

Alt. 31 ft 24.60 °N, 81.67 °W | Updated 10 minutes ago

Ciel dégagé
Ciel dégagé
70.7 ° F
Paraît 75 ° F
N
1.1
Vent Variable Vent de ENE

Aujourd'hui
Haut(e) -- | Bas -- ° F
--% Risque de précip.
Hier
Haut(e) -- | Bas -- ° F
Precip. -- pouce
Pression 30.20 pouce
Visibilité 10.0 Miles terrestres
Nuages Peu 2500 ft
indice de chaleur 75 ° F
Point de rosée 58 ° F
Humidité 64%
Précipitations 0.00 pouce
Profondeur de la couche neigeuse Non disponible.
7:02 AM 6:19 PM
Lune montante, 24% visible
METAR KNQX 122153Z 01010KT 10SM FEW025 21/14 A3020 RMK AO2 SLP226 T02110144 $
Pression 30.20 pouce
Visibilité 10.0 Miles terrestres
Nuages Peu 2500 ft
indice de chaleur 75 ° F
Point de rosée 58 ° F
Humidité 64%
Précipitations 0.00 pouce
Profondeur de la couche neigeuse Non disponible.
7:02 AM 6:19 PM
Lune montante, 24% visible
METAR KNQX 122153Z 01010KT 10SM FEW025 21/14 A3020 RMK AO2 SLP226 T02110144 $

10-Day Weather Forecast

Almanac

Astronomie

Feb. 12, 2016 Lever Coucher
Temps réel
Crépuscule civil
Crépuscule nautique
Crépuscule astronomique
Lune
Durée de lumière visible
Longueur du jour
Tomorrow will be .
, % of the Moon is Illuminated

Extrêmes aujourd'hui

State Highs State Lows

Community

WunderPhotos

Upload Photos

1,892,421 Photos téléchargées !

WunderBlog® & News

Nearby

Qualité de l'air

  Qualité de l'air Indice de la qualité de l'air Polluant
Not available.

Épaisseur de neige

Station Depth Altitude

Activité sismique

Ville Distance Mag. Time & Date
Minimum magnitude displayed is 2.5.

Températures des eaux côtières

Lieu Température

Stations

Stations météo à proximité

Emplacement de la station Température Refroidissement éolien Point de rosée Humidité Vent Precip. Alt. Mise à jour Type
                   

Watches & Warnings

There are currently no watches in effect.